createdAt,value
2023-04-03T00:01:54.427Z,2.83
2023-04-03T00:04:21.702Z,3.17
2023-04-03T00:06:48.957Z,2.70
2023-04-03T00:09:16.296Z,3.13
2023-04-03T00:11:43.949Z,2.58
2023-04-03T00:14:11.170Z,2.65
2023-04-03T00:16:38.530Z,2.53
2023-04-03T00:19:06.254Z,2.85
2023-04-03T00:21:33.590Z,3.10
2023-04-03T00:24:00.976Z,2.65
2023-04-03T00:26:28.214Z,2.35
2023-04-03T00:28:55.502Z,2.53
2023-04-03T00:31:22.756Z,2.60
2023-04-03T00:33:49.966Z,2.78
2023-04-03T00:36:17.224Z,2.75
2023-04-03T00:38:44.426Z,2.75
2023-04-03T00:41:11.756Z,2.65
2023-04-03T00:43:39.332Z,2.53
2023-04-03T00:46:06.797Z,3.20
2023-04-03T00:48:34.311Z,2.42
2023-04-03T00:51:01.884Z,3.38
2023-04-03T00:53:34.092Z,2.50
2023-04-03T00:56:02.164Z,2.83
2023-04-03T00:58:33.764Z,2.75
2023-04-03T01:01:01.805Z,2.72
2023-04-03T01:03:29.260Z,2.85
2023-04-03T01:05:56.661Z,2.88
2023-04-03T01:08:24.086Z,2.58
2023-04-03T01:10:51.622Z,2.17
2023-04-03T01:13:27.458Z,2.67
2023-04-03T01:15:55.523Z,3.10
2023-04-03T01:18:24.469Z,1.85
2023-04-03T01:20:52.199Z,2.85
2023-04-03T01:23:39.086Z,3.08
2023-04-03T01:26:08.504Z,1.77
2023-04-03T01:28:36.722Z,2.78
2023-04-03T01:31:14.325Z,2.80
2023-04-03T01:33:42.176Z,3.28
2023-04-03T01:36:12.091Z,3.83
2023-04-03T01:38:39.378Z,2.63
2023-04-03T01:41:06.903Z,2.90
2023-04-03T01:43:34.175Z,3.08
2023-04-03T01:46:01.364Z,2.38
2023-04-03T01:48:28.587Z,2.65
2023-04-03T01:50:56.329Z,2.20
2023-04-03T01:53:25.144Z,2.85
2023-04-03T01:55:52.336Z,3.10
2023-04-03T01:58:19.922Z,2.78
2023-04-03T02:00:49.379Z,3.13
2023-04-03T02:03:17.081Z,2.80
2023-04-03T02:05:44.386Z,2.60
2023-04-03T02:08:12.008Z,2.97
2023-04-03T02:10:39.395Z,3.25
2023-04-03T02:13:07.310Z,2.85
2023-04-03T02:15:36.602Z,2.88
2023-04-03T02:18:07.761Z,3.00
2023-04-03T02:20:35.551Z,2.92
2023-04-03T02:23:04.519Z,2.88
2023-04-03T02:25:37.218Z,3.28
2023-04-03T02:28:06.050Z,2.90
2023-04-03T02:30:33.326Z,3.05
2023-04-03T02:33:01.019Z,2.80
2023-04-03T02:35:28.348Z,2.58
2023-04-03T02:37:57.376Z,2.80
2023-04-03T02:40:24.942Z,4.50
2023-04-03T02:42:52.172Z,2.92
2023-04-03T02:45:20.378Z,2.90
2023-04-03T02:47:48.226Z,2.80
2023-04-03T02:50:15.530Z,2.58
2023-04-03T02:52:42.907Z,3.17
2023-04-03T02:55:10.415Z,2.90
2023-04-03T02:57:37.768Z,3.15
2023-04-03T03:00:05.311Z,3.25
2023-04-03T03:02:32.791Z,3.05
2023-04-03T03:04:59.953Z,3.08
2023-04-03T03:07:29.878Z,3.03
2023-04-03T03:09:57.208Z,2.80
2023-04-03T03:12:25.727Z,3.22
2023-04-03T03:14:52.986Z,2.78
2023-04-03T03:17:20.306Z,3.00
2023-04-03T03:19:47.827Z,3.10
2023-04-03T03:22:15.134Z,3.40
2023-04-03T03:24:42.501Z,2.92
2023-04-03T03:27:10.171Z,3.28
2023-04-03T03:29:37.683Z,3.20
2023-04-03T03:32:05.865Z,3.28
2023-04-03T03:34:33.149Z,3.20
2023-04-03T03:37:00.422Z,3.10
2023-04-03T03:39:28.161Z,3.67
2023-04-03T03:41:55.717Z,3.25
2023-04-03T03:44:24.260Z,3.58
2023-04-03T03:46:51.521Z,2.80
2023-04-03T03:49:19.035Z,3.40
2023-04-03T03:51:46.630Z,2.22
2023-04-03T03:54:13.960Z,3.28
2023-04-03T03:56:41.268Z,3.60
2023-04-03T03:59:08.637Z,3.25
2023-04-03T04:01:36.324Z,2.97
2023-04-03T04:04:04.728Z,2.97
2023-04-03T04:06:32.821Z,3.15
2023-04-03T04:09:04.378Z,3.60
2023-04-03T04:11:33.468Z,3.17
2023-04-03T04:14:01.243Z,3.25
2023-04-03T04:16:30.384Z,3.63
2023-04-03T04:19:01.415Z,3.80
2023-04-03T04:21:28.790Z,3.13
2023-04-03T04:23:55.965Z,3.42
2023-04-03T04:26:24.228Z,3.95
2023-04-03T04:28:51.580Z,3.20
2023-04-03T04:31:20.212Z,3.50
2023-04-03T04:33:47.463Z,3.55
2023-04-03T04:36:16.380Z,3.58
2023-04-03T04:38:46.233Z,3.78
2023-04-03T04:41:14.749Z,3.83
2023-04-03T04:43:42.536Z,2.97
2023-04-03T04:46:13.473Z,3.30
2023-04-03T04:48:46.174Z,3.28
2023-04-03T04:51:13.950Z,3.63
2023-04-03T04:53:42.447Z,3.90
2023-04-03T04:56:12.669Z,3.45
2023-04-03T04:58:40.800Z,3.65
2023-04-03T05:01:09.676Z,3.67
2023-04-03T05:03:42.229Z,3.58
2023-04-03T05:06:09.407Z,2.97
2023-04-03T05:08:37.982Z,4.00
2023-04-03T05:11:05.661Z,3.92
2023-04-03T05:13:32.984Z,4.07
2023-04-03T05:16:00.533Z,4.22
2023-04-03T05:18:28.354Z,4.82
2023-04-03T05:20:59.847Z,3.38
2023-04-03T05:23:27.621Z,4.00
2023-04-03T05:25:56.037Z,4.00
2023-04-03T05:28:23.620Z,4.00
2023-04-03T05:30:58.133Z,3.50
2023-04-03T05:33:29.201Z,3.92
2023-04-03T05:36:03.196Z,3.95
2023-04-03T05:38:31.944Z,4.43
2023-04-03T05:41:01.446Z,3.08
2023-04-03T05:43:29.125Z,3.72
2023-04-03T05:45:57.108Z,3.60
2023-04-03T05:48:27.293Z,3.10
2023-04-03T05:50:56.938Z,3.40
2023-04-03T05:53:28.881Z,4.10
2023-04-03T05:55:59.074Z,3.45
2023-04-03T05:58:26.950Z,3.53
2023-04-03T06:00:54.759Z,3.05
2023-04-03T06:03:22.308Z,3.05
2023-04-03T06:05:49.861Z,3.63
2023-04-03T06:08:17.121Z,3.53
2023-04-03T06:10:44.252Z,2.85
2023-04-03T06:13:12.955Z,3.10
2023-04-03T06:15:41.285Z,3.47
2023-04-03T06:18:10.911Z,3.20
2023-04-03T06:20:38.587Z,3.30
2023-04-03T06:23:08.193Z,3.20
2023-04-03T06:25:35.860Z,2.20
2023-04-03T06:28:03.202Z,2.15
2023-04-03T06:30:30.443Z,2.63
2023-04-03T06:32:57.744Z,2.20
2023-04-03T06:35:25.069Z,2.45
2023-04-03T06:37:52.306Z,2.00
2023-04-03T06:40:24.411Z,2.53
2023-04-03T06:42:51.679Z,2.35
2023-04-03T06:45:21.140Z,2.42
2023-04-03T06:47:48.511Z,2.10
2023-04-03T06:50:16.755Z,2.20
2023-04-03T06:52:44.238Z,2.22
2023-04-03T06:55:11.604Z,2.55
2023-04-03T06:57:39.260Z,2.20
2023-04-03T07:00:08.120Z,2.20
2023-04-03T07:02:36.177Z,2.40
2023-04-03T07:05:03.797Z,2.17
2023-04-03T07:07:31.133Z,2.20
2023-04-03T07:09:58.681Z,2.03
2023-04-03T07:12:25.626Z,1.90
2023-04-03T07:14:53.129Z,2.10
2023-04-03T07:17:20.429Z,2.45
2023-04-03T07:19:47.652Z,2.33
2023-04-03T07:22:14.878Z,2.15
2023-04-03T07:24:42.186Z,2.10
2023-04-03T07:27:09.759Z,2.53
2023-04-03T07:29:37.346Z,2.05
2023-04-03T07:32:04.642Z,2.60
2023-04-03T07:34:31.880Z,2.50
2023-04-03T07:36:59.090Z,1.92
2023-04-03T07:39:26.838Z,1.85
2023-04-03T07:41:54.050Z,2.15
2023-04-03T07:44:21.193Z,2.00
2023-04-03T07:46:49.482Z,2.08
2023-04-03T07:49:17.721Z,1.77
2023-04-03T07:51:44.980Z,2.03
2023-04-03T07:54:12.196Z,2.15
2023-04-03T07:56:39.441Z,2.10
2023-04-03T07:59:07.432Z,2.33
2023-04-03T08:01:34.809Z,2.05
2023-04-03T08:04:02.354Z,2.10
2023-04-03T08:06:44.862Z,2.10
2023-04-03T08:09:14.437Z,2.35
2023-04-03T08:11:41.775Z,2.20
2023-04-03T08:14:08.763Z,1.65
2023-04-03T08:16:36.416Z,1.80
2023-04-03T08:19:03.898Z,2.20
2023-04-03T08:21:32.533Z,1.95
2023-04-03T08:23:59.697Z,1.40
2023-04-03T08:26:27.825Z,1.70
2023-04-03T08:28:55.946Z,1.75
2023-04-03T08:31:23.253Z,1.73
2023-04-03T08:33:50.760Z,1.73
2023-04-03T08:36:30.718Z,1.70
2023-04-03T08:38:58.141Z,1.58
2023-04-03T08:41:50.697Z,1.48
2023-04-03T08:44:41.562Z,1.48
2023-04-03T08:47:41.829Z,1.52
2023-04-03T08:50:14.840Z,1.63
2023-04-03T08:52:49.735Z,1.70
2023-04-03T08:55:41.863Z,1.38
2023-04-03T08:58:17.917Z,1.27
2023-04-03T09:00:59.541Z,1.30
2023-04-03T09:03:27.292Z,1.30
2023-04-03T09:06:12.362Z,1.42
2023-04-03T09:08:45.806Z,1.63
2023-04-03T09:11:24.803Z,1.30
2023-04-03T09:13:58.343Z,1.23
2023-04-03T09:16:43.192Z,1.40
2023-04-03T09:19:10.428Z,1.23
2023-04-03T09:21:42.494Z,1.30
2023-04-03T09:24:12.586Z,1.75
2023-04-03T09:27:05.413Z,1.10
2023-04-03T09:29:32.948Z,0.80
2023-04-03T09:32:13.069Z,1.10
2023-04-03T09:34:42.914Z,1.67
2023-04-03T09:37:10.305Z,0.90
2023-04-03T09:39:55.371Z,1.05
2023-04-03T09:42:25.046Z,0.90
2023-04-03T09:44:59.650Z,0.90
2023-04-03T09:47:36.379Z,1.00
2023-04-03T09:50:15.385Z,1.08
2023-04-03T09:52:44.001Z,0.75
2023-04-03T09:55:27.829Z,0.98
2023-04-03T09:57:57.829Z,0.90
2023-04-03T10:00:40.819Z,1.02
2023-04-03T10:03:29.576Z,0.63
2023-04-03T10:05:58.922Z,1.10
2023-04-03T10:08:34.821Z,1.38
2023-04-03T10:11:17.965Z,0.90
2023-04-03T10:13:58.430Z,0.73
2023-04-03T10:17:02.073Z,0.85
2023-04-03T10:19:59.541Z,0.88
2023-04-03T10:22:32.250Z,1.05
2023-04-03T10:25:10.234Z,0.75
2023-04-03T10:28:01.557Z,1.20
2023-04-03T10:30:51.281Z,0.80
2023-04-03T10:33:33.271Z,0.85
2023-04-03T10:36:14.401Z,0.90
2023-04-03T10:39:04.689Z,1.00
2023-04-03T10:42:18.622Z,0.70
2023-04-03T10:45:09.519Z,1.02
2023-04-03T10:47:51.272Z,1.02
2023-04-03T10:50:51.710Z,0.50
2023-04-03T10:53:19.122Z,0.70
2023-04-03T10:55:46.355Z,1.10
2023-04-03T10:58:27.904Z,1.23
2023-04-03T11:00:58.046Z,0.55
2023-04-03T11:03:36.858Z,0.85
2023-04-03T11:06:08.382Z,0.75
2023-04-03T11:08:35.998Z,0.90
2023-04-03T11:11:12.599Z,1.15
2023-04-03T11:14:04.116Z,0.95
2023-04-03T11:16:43.532Z,1.48
2023-04-03T11:19:25.547Z,0.90
2023-04-03T11:21:58.203Z,0.93
2023-04-03T11:24:32.427Z,0.90
2023-04-03T11:27:01.320Z,0.80
2023-04-03T11:29:40.763Z,1.00
2023-04-03T11:32:35.482Z,1.00
2023-04-03T11:35:06.217Z,0.95
2023-04-03T11:37:39.280Z,0.70
2023-04-03T11:40:24.144Z,0.85
2023-04-03T11:43:05.004Z,1.10
2023-04-03T11:45:39.455Z,1.23
2023-04-03T11:48:25.236Z,0.73
2023-04-03T11:50:53.029Z,0.93
2023-04-03T11:53:30.758Z,0.85
2023-04-03T11:56:03.682Z,1.50
2023-04-03T11:58:33.199Z,0.88
2023-04-03T12:01:00.455Z,1.20
2023-04-03T12:03:30.947Z,1.00
2023-04-03T12:06:14.710Z,0.98
2023-04-03T12:08:46.906Z,1.10
2023-04-03T12:11:14.358Z,1.08
2023-04-03T12:13:51.354Z,1.02
2023-04-03T12:16:27.271Z,1.20
2023-04-03T12:18:54.594Z,1.10
2023-04-03T12:21:23.926Z,0.98
2023-04-03T12:24:26.550Z,1.00
2023-04-03T12:27:20.735Z,1.10
2023-04-03T12:30:17.953Z,1.15
2023-04-03T12:33:26.508Z,0.88
2023-04-03T12:36:19.446Z,0.95
2023-04-03T12:39:14.516Z,1.45
2023-04-03T12:41:51.157Z,1.42
2023-04-03T12:45:07.465Z,1.15
2023-04-03T12:47:41.006Z,1.33
2023-04-03T12:50:30.991Z,1.10
2023-04-03T12:53:03.076Z,0.93
2023-04-03T12:55:30.646Z,1.30
2023-04-03T12:57:57.917Z,0.90
2023-04-03T13:00:33.649Z,1.20
2023-04-03T13:03:04.490Z,1.40
2023-04-03T13:05:36.649Z,1.10
2023-04-03T13:08:09.735Z,1.10
2023-04-03T13:10:51.958Z,1.30
2023-04-03T13:13:20.821Z,1.42
2023-04-03T13:15:53.894Z,1.25
2023-04-03T13:18:33.776Z,1.27
2023-04-03T13:21:16.850Z,1.23
2023-04-03T13:23:53.040Z,1.05
2023-04-03T13:26:26.996Z,1.40
2023-04-03T13:28:57.671Z,1.27
2023-04-03T13:31:28.790Z,1.20
2023-04-03T13:34:11.947Z,1.20
2023-04-03T13:36:48.951Z,1.20
2023-04-03T13:39:16.484Z,1.55
2023-04-03T13:41:46.235Z,1.17
2023-04-03T13:44:37.104Z,1.30
2023-04-03T13:47:23.302Z,1.63
2023-04-03T13:50:01.544Z,1.15
2023-04-03T13:52:32.260Z,1.33
2023-04-03T13:55:05.807Z,1.40
2023-04-03T13:57:35.823Z,1.58
2023-04-03T14:00:21.000Z,1.50
2023-04-03T14:02:49.903Z,0.98
2023-04-03T14:05:22.243Z,1.02
2023-04-03T14:07:49.547Z,1.13
2023-04-03T14:10:18.544Z,1.10
2023-04-03T14:12:45.818Z,1.58
2023-04-03T14:15:25.292Z,1.25
2023-04-03T14:17:52.746Z,1.60
2023-04-03T14:20:22.602Z,1.55
2023-04-03T14:22:50.177Z,1.10
2023-04-03T14:25:18.362Z,1.30
2023-04-03T14:27:47.843Z,1.20
2023-04-03T14:30:18.368Z,1.13
2023-04-03T14:32:46.751Z,1.20
2023-04-03T14:35:14.345Z,1.45
2023-04-03T14:37:41.868Z,1.50
2023-04-03T14:40:10.698Z,2.38
2023-04-03T14:42:38.629Z,1.83
2023-04-03T14:45:07.763Z,1.92
2023-04-03T14:47:37.616Z,2.08
2023-04-03T14:50:06.088Z,2.08
2023-04-03T14:52:34.850Z,1.63
2023-04-03T14:55:02.469Z,2.25
2023-04-03T14:57:30.739Z,2.42
2023-04-03T14:59:58.305Z,1.80
2023-04-03T15:02:33.259Z,2.28
2023-04-03T15:05:01.406Z,2.20
2023-04-03T15:07:29.808Z,1.40
2023-04-03T15:09:57.486Z,1.38
2023-04-03T15:12:25.639Z,2.03
2023-04-03T15:15:00.837Z,1.80
2023-04-03T15:17:30.438Z,2.10
2023-04-03T15:19:57.665Z,1.45
2023-04-03T15:22:25.912Z,1.77
2023-04-03T15:24:53.092Z,1.30
2023-04-03T15:27:20.282Z,1.75
2023-04-03T15:29:47.493Z,1.80
2023-04-03T15:32:14.987Z,2.33
2023-04-03T15:34:42.610Z,2.58
2023-04-03T15:37:10.140Z,1.55
2023-04-03T15:39:37.446Z,2.20
2023-04-03T15:42:09.376Z,1.90
2023-04-03T15:44:36.634Z,1.85
2023-04-03T15:47:04.515Z,1.45
2023-04-03T15:49:32.541Z,1.90
2023-04-03T15:51:59.778Z,1.60
2023-04-03T15:54:27.059Z,1.90
2023-04-03T15:56:54.721Z,2.15
2023-04-03T15:59:21.989Z,2.50
2023-04-03T16:01:49.892Z,2.35
2023-04-03T16:04:18.074Z,2.30
2023-04-03T16:06:46.495Z,1.42
2023-04-03T16:09:13.896Z,2.45
2023-04-03T16:11:43.691Z,2.40
2023-04-03T16:14:11.034Z,2.38
2023-04-03T16:16:38.676Z,1.92
2023-04-03T16:19:06.244Z,2.22
2023-04-03T16:21:34.137Z,2.05
2023-04-03T16:24:01.949Z,2.42
2023-04-03T16:26:29.164Z,1.58
2023-04-03T16:28:56.450Z,2.42
2023-04-03T16:31:24.718Z,2.20
2023-04-03T16:33:52.188Z,1.75
2023-04-03T16:36:19.755Z,2.38
2023-04-03T16:38:47.322Z,1.80
2023-04-03T16:41:15.057Z,1.80
2023-04-03T16:46:10.424Z,2.38
2023-04-03T16:48:37.832Z,1.80
2023-04-03T16:51:05.374Z,2.33
2023-04-03T16:53:32.547Z,1.73
2023-04-03T16:56:01.858Z,1.35
2023-04-03T16:58:29.013Z,2.47
2023-04-03T17:00:56.418Z,2.08
2023-04-03T17:03:29.070Z,1.63
2023-04-03T17:05:56.349Z,1.90
2023-04-03T17:08:23.494Z,1.83
2023-04-03T17:10:52.796Z,1.80
2023-04-03T17:13:20.080Z,1.42
2023-04-03T17:15:47.271Z,1.83
2023-04-03T17:18:14.568Z,1.90
2023-04-03T17:20:42.297Z,2.08
2023-04-03T17:23:10.583Z,1.40
2023-04-03T17:25:37.893Z,1.50
2023-04-03T17:28:05.399Z,1.90
2023-04-03T17:30:32.601Z,2.42
2023-04-03T17:32:59.884Z,1.50
2023-04-03T17:35:27.278Z,2.40
2023-04-03T17:37:54.482Z,2.88
2023-04-03T17:40:21.813Z,2.17
2023-04-03T17:42:49.056Z,2.60
2023-04-03T17:45:27.063Z,2.50
2023-04-03T17:47:54.491Z,1.90
2023-04-03T17:50:21.869Z,2.15
2023-04-03T17:52:49.276Z,1.70
2023-04-03T17:55:17.900Z,2.15
2023-04-03T17:57:45.213Z,2.55
2023-04-03T18:00:12.955Z,2.10
2023-04-03T18:02:41.420Z,2.63
2023-04-03T18:05:10.185Z,2.50
2023-04-03T18:07:43.173Z,2.28
2023-04-03T18:10:10.710Z,1.70
2023-04-03T18:12:37.945Z,2.58
2023-04-03T18:15:06.716Z,1.67
2023-04-03T18:17:34.087Z,2.13
2023-04-03T18:20:04.208Z,2.70
2023-04-03T18:22:31.759Z,2.80
2023-04-03T18:25:02.486Z,2.45
2023-04-03T18:27:30.074Z,2.92
2023-04-03T18:30:01.127Z,2.65
2023-04-03T18:32:31.779Z,3.08
2023-04-03T18:35:00.906Z,3.78
2023-04-03T18:37:28.567Z,3.40
2023-04-03T18:40:01.410Z,3.03
2023-04-03T18:42:32.342Z,3.35
2023-04-03T18:45:00.951Z,2.53
2023-04-03T18:47:40.100Z,2.45
2023-04-03T18:50:33.057Z,3.38
2023-04-03T18:53:03.699Z,2.92
2023-04-03T18:55:32.381Z,2.80
2023-04-03T18:57:59.788Z,2.83
2023-04-03T19:00:30.331Z,3.78
2023-04-03T19:03:04.765Z,3.88
2023-04-03T19:05:32.213Z,4.22
2023-04-03T19:08:00.063Z,3.42
2023-04-03T19:10:27.257Z,2.92
2023-04-03T19:12:55.118Z,3.03
2023-04-03T19:15:24.253Z,3.22
2023-04-03T19:17:52.187Z,3.05
2023-04-03T19:20:19.743Z,3.08
2023-04-03T19:22:47.045Z,4.90
2023-04-03T19:25:14.976Z,4.10
2023-04-03T19:27:43.866Z,2.65
2023-04-03T19:30:12.342Z,3.10
2023-04-03T19:32:42.408Z,3.50
2023-04-03T19:35:11.293Z,3.58
2023-04-03T19:37:38.587Z,3.20
2023-04-03T19:40:06.534Z,4.00
2023-04-03T19:42:36.777Z,3.60
2023-04-03T19:45:04.885Z,2.83
2023-04-03T19:47:33.095Z,3.78
2023-04-03T19:50:00.437Z,2.85
2023-04-03T19:52:28.371Z,3.42
2023-04-03T19:54:57.395Z,3.50
2023-04-03T19:57:25.103Z,4.15
2023-04-03T19:59:54.472Z,4.15
2023-04-03T20:02:23.920Z,4.10
2023-04-03T20:04:51.479Z,3.97
2023-04-03T20:07:19.077Z,4.25
2023-04-03T20:09:46.776Z,4.85
2023-04-03T20:12:14.011Z,4.03
2023-04-03T20:14:41.522Z,3.90
2023-04-03T20:17:08.966Z,4.18
2023-04-03T20:19:36.906Z,3.90
2023-04-03T20:22:04.103Z,2.80
2023-04-03T20:24:31.664Z,2.90
2023-04-03T20:26:59.555Z,4.10
2023-04-03T20:29:27.277Z,3.95
2023-04-03T20:31:55.465Z,4.07
2023-04-03T20:34:24.417Z,4.05
2023-04-03T20:36:52.079Z,4.00
2023-04-03T20:39:23.932Z,3.63
2023-04-03T20:41:51.535Z,2.72
2023-04-03T20:44:19.865Z,3.03
2023-04-03T20:46:52.910Z,3.65
2023-04-03T20:49:21.460Z,3.72
2023-04-03T20:51:50.566Z,3.15
2023-04-03T20:54:18.445Z,3.40
2023-04-03T20:56:47.250Z,2.88
2023-04-03T20:59:15.502Z,2.85
2023-04-03T21:01:43.171Z,3.22
2023-04-03T21:04:17.097Z,3.58
2023-04-03T21:07:03.324Z,3.58
2023-04-03T21:09:50.238Z,3.53
2023-04-03T21:12:37.068Z,3.83
2023-04-03T21:15:23.226Z,3.58
2023-04-03T21:18:17.027Z,3.67
2023-04-03T21:20:45.714Z,2.45
2023-04-03T21:23:14.483Z,3.05
2023-04-03T21:25:41.695Z,3.03
2023-04-03T21:28:09.112Z,3.15
2023-04-03T21:30:36.526Z,3.58
2023-04-03T21:33:03.838Z,3.72
2023-04-03T21:35:31.113Z,3.08
2023-04-03T21:37:58.300Z,3.40
2023-04-03T21:40:26.649Z,3.40
2023-04-03T21:42:57.441Z,3.15
2023-04-03T21:45:25.112Z,3.53
2023-04-03T21:47:52.895Z,4.00
2023-04-03T21:50:20.476Z,3.47
2023-04-03T21:52:47.926Z,3.85
2023-04-03T21:55:15.400Z,3.63
2023-04-03T21:57:42.607Z,3.60
2023-04-03T22:00:10.854Z,3.80
2023-04-03T22:02:41.344Z,3.30
2023-04-03T22:05:08.736Z,4.18
2023-04-03T22:07:35.978Z,3.00
2023-04-03T22:10:03.267Z,4.68
2023-04-03T22:12:30.774Z,3.80
2023-04-03T22:14:57.868Z,3.45
2023-04-03T22:17:25.085Z,3.90
2023-04-03T22:19:52.265Z,4.18
2023-04-03T22:22:20.385Z,4.03
2023-04-03T22:24:47.556Z,3.90
2023-04-03T22:27:14.737Z,3.40
2023-04-03T22:29:42.383Z,3.88
2023-04-03T22:32:09.619Z,4.53
2023-04-03T22:34:38.033Z,3.78
2023-04-03T22:37:05.540Z,3.90
2023-04-03T22:39:32.665Z,3.40
2023-04-03T22:42:01.463Z,4.07
2023-04-03T22:44:36.498Z,3.03
2023-04-03T22:47:04.050Z,3.58
2023-04-03T22:49:32.263Z,3.70
2023-04-03T22:52:00.128Z,3.63
2023-04-03T22:54:30.579Z,3.88
2023-04-03T22:56:58.270Z,3.63
2023-04-03T22:59:25.834Z,3.25
2023-04-03T23:01:53.201Z,3.50
2023-04-03T23:04:20.639Z,3.42
2023-04-03T23:06:47.891Z,2.85
2023-04-03T23:09:15.137Z,3.28
2023-04-03T23:11:42.924Z,3.33
2023-04-03T23:14:11.274Z,3.50
2023-04-03T23:16:38.685Z,3.72
2023-04-03T23:19:07.305Z,3.67
2023-04-03T23:21:34.626Z,3.92
2023-04-03T23:24:01.774Z,3.58
2023-04-03T23:26:29.074Z,3.80
2023-04-03T23:28:56.438Z,3.28
2023-04-03T23:31:25.859Z,2.90
2023-04-03T23:33:53.243Z,3.45
2023-04-03T23:36:21.127Z,2.47
2023-04-03T23:38:48.491Z,3.55
2023-04-03T23:41:16.167Z,2.65
2023-04-03T23:43:43.441Z,4.10
2023-04-03T23:46:11.088Z,3.97
2023-04-03T23:48:38.368Z,4.18
2023-04-03T23:51:05.509Z,3.47
2023-04-03T23:53:33.910Z,4.82
2023-04-03T23:56:01.348Z,3.03
2023-04-03T23:58:28.691Z,3.55
